Предлагаем Вашему вниманию английскую версию страницы: AUTOTAF.ME 37699 - aviation weather forecast Aparan

AUTOTAF 37699 - авиапрогноз Апаран

Сегодня рассвет 03:48 UTC, восход солнца 04:17 UTC,
местный полдень 09:15 UTC, заход солнца 14:13 UTC,
наступление темноты 14:42 UTC.

Краткий прогноз 37699 на 9 часов

AUTOTAF.ME 37699 262000Z 2621/2706 VRB02MPS CAVOK

Детальный прогноз 37699 на 24 часа

AUTOTAF.ME 37699 262000Z 2621/2721 VRB02MPS 9999 SKC TXM04/2709Z TNM12/2621Z       
  BECMG 2713/2715 OVC078  
  BECMG 2716/2718 OVC100  
  FM272100 VRB02MPS 9000 BR OVC095

Подробный табличный прогноз

Время (UTC) miniAUTOTAF на 3 ч WX FZLVL
M AGL
ICE TURB Т
(°С)
Тd
(°С)
f(%) QNH
(гПа)
WIND/T
18 VRB02MPS 9999 SKC SFC -12 -15 81 1025 ...
21 VRB02MPS 9999 SKC SFC -12 -15 79 1026 ...
27.01.2021
00 VRB02MPS 9999 OVC125 SFC -12 -14 82 1025 ...
03 VRB02MPS 9999 SCT130 SFC -12 -14 82 1025 ...
06 VRB02MPS 9999 SCT140 SFC -9 -12 78 1023 ...
09 VRB02MPS 9999 FEW170 SFC -4 -7 80 1021 ...
12 VRB02MPS 9999 FEW160 SFC -4 -7 80 1019 ...
15 VRB02MPS 9999 OVC078 SFC MOD FL150/FL170 -7 -9 82 1020 ...
18 VRB02MPS 9999 OVC100 SFC MOD FL170/FL190 -7 -10 82 1020 ...
21 VRB02MPS 9000 BR OVC095 BR SFC MOD FL190/FL200 -6 -9 83 1019 ...
28.01.2021
00 VRB02MPS 9999 OVC100 SFC -6 -8 84 1017 ...
03 VRB02MPS 9999 OVC077 SFC MOD FL150/FL160 -6 -9 84 1016 ...
06 VRB02MPS 1000 VCSH BR BKN003 BKN010CB VCSH BR SFC MOD FL190/FL200 -5 -8 84 1016 ...
09 VRB02MPS 9999 VCSH BKN008 OVC010CB TEMPO 1500 VCSH SFC MOD FL110/FL170 -4 -6 83 1013 ...
12 23003MPS 9999 VCSH BKN007 BKN010CB TEMPO 1500 VCSH SFC MOD FL110/FL120 -4 -6 85 1011 ...
15 VRB02MPS 1000 BR BKN003TCU BR SFC FBL FL90/FL110 -6 -7 92 1013 ...


Широта 40.6°, долгота 44.3°, высота 1891 м абс.
Средняя высота рельефа местности 2046 м абс.
Прогнозы обновляются четыре раза в сутки: в 02, 08, 14, 20 ч всемирного времени.


Выбрать прогноз по другой модели Апаран
Онлайн-сводка гроз по Апаран (для РФ и ближнего зарубежья)
Карта фактических гроз в окрестностях Апаран
Динамические прогностические карты (ventusky.com)
Прогностическая карта высоты нижней границы облаков по Апаран (windy.com)
Выбрать другой город

Прогноз предназначен для личного научно-познавательного использования частными лицами
и не предназначен для принятия важных решений и выполнения реальных полётов воздушных судов

При копировании или ином использовании любых материалов данного сайта ссылка на © meteocenter.asia обязательна.

0.69/1.1